createdAt,value
2022-10-25T00:00:23.157Z,2.25
2022-10-25T00:03:24.402Z,1.88
2022-10-25T00:06:25.652Z,3.10
2022-10-25T00:09:26.905Z,4.60
2022-10-25T00:12:28.190Z,3.33
2022-10-25T00:15:29.491Z,2.15
2022-10-25T00:18:30.716Z,3.55
2022-10-25T00:21:31.960Z,1.80
2022-10-25T00:24:33.183Z,2.08
2022-10-25T00:27:34.733Z,1.77
2022-10-25T00:30:35.947Z,2.08
2022-10-25T00:33:37.887Z,3.33
2022-10-25T00:36:39.174Z,2.45
2022-10-25T00:39:40.463Z,2.03
2022-10-25T00:42:41.867Z,1.52
2022-10-25T00:45:43.097Z,3.13
2022-10-25T00:48:51.525Z,2.45
2022-10-25T00:51:54.334Z,2.03
2022-10-25T00:54:55.643Z,2.97
2022-10-25T00:57:59.654Z,0.98
2022-10-25T01:01:01.599Z,1.30
2022-10-25T01:04:04.710Z,1.60
2022-10-25T01:07:06.240Z,1.98
2022-10-25T01:10:07.719Z,2.20
2022-10-25T01:13:08.963Z,2.60
2022-10-25T01:16:13.247Z,2.90
2022-10-25T01:19:20.692Z,2.00
2022-10-25T01:22:32.392Z,2.03
2022-10-25T01:25:36.392Z,2.05
2022-10-25T01:28:56.491Z,2.17
2022-10-25T01:32:00.293Z,2.85
2022-10-25T01:35:01.491Z,1.85
2022-10-25T01:38:11.220Z,0.85
2022-10-25T01:41:19.501Z,2.13
2022-10-25T01:44:33.023Z,1.60
2022-10-25T01:47:39.430Z,1.10
2022-10-25T01:50:42.628Z,2.25
2022-10-25T01:53:44.920Z,1.50
2022-10-25T01:56:58.062Z,2.85
2022-10-25T02:00:10.407Z,3.15
2022-10-25T02:03:22.535Z,1.73
2022-10-25T02:06:23.747Z,1.55
2022-10-25T02:09:31.703Z,2.65
2022-10-25T02:12:51.566Z,1.73
2022-10-25T02:15:56.805Z,1.80
2022-10-25T02:18:59.540Z,2.15
2022-10-25T02:22:02.034Z,1.88
2022-10-25T02:25:04.243Z,2.53
2022-10-25T02:28:07.200Z,5.18
2022-10-25T02:31:10.424Z,2.08
2022-10-25T02:34:11.817Z,5.20
2022-10-25T02:37:13.056Z,1.40
2022-10-25T02:40:14.323Z,2.20
2022-10-25T02:47:12.564Z,1.40
2022-10-25T02:50:13.878Z,3.00
2022-10-25T02:53:15.110Z,1.55
2022-10-25T02:56:19.231Z,3.53
2022-10-25T02:59:21.276Z,2.58
2022-10-25T03:02:22.568Z,2.30
2022-10-25T03:05:23.780Z,1.58
2022-10-25T03:08:25.874Z,1.60
2022-10-25T03:11:27.139Z,2.42
2022-10-25T03:14:28.394Z,2.97
2022-10-25T03:17:29.689Z,2.05
2022-10-25T03:20:31.255Z,3.25
2022-10-25T03:23:32.751Z,2.63
2022-10-25T03:26:33.974Z,1.88
2022-10-25T03:29:35.225Z,4.03
2022-10-25T03:32:36.542Z,3.00
2022-10-25T03:35:37.789Z,3.47
2022-10-25T03:38:39.018Z,2.65
2022-10-25T03:41:40.269Z,2.97
2022-10-25T03:44:41.493Z,2.47
2022-10-25T03:47:42.759Z,2.10
2022-10-25T03:50:44.080Z,2.28
2022-10-25T03:53:45.313Z,3.13
2022-10-25T03:56:46.578Z,1.80
2022-10-25T03:59:47.848Z,2.00
2022-10-25T04:02:54.666Z,2.55
2022-10-25T04:05:58.223Z,1.75
2022-10-25T04:08:59.488Z,2.70
2022-10-25T04:12:00.885Z,2.72
2022-10-25T04:15:02.120Z,1.85
2022-10-25T04:18:03.451Z,2.53
2022-10-25T04:21:04.760Z,2.53
2022-10-25T04:24:06.033Z,2.38
2022-10-25T04:27:07.488Z,2.72
2022-10-25T04:30:08.921Z,2.72
2022-10-25T04:33:10.141Z,4.00
2022-10-25T04:36:11.401Z,3.22
2022-10-25T04:39:12.897Z,2.85
2022-10-25T04:42:14.132Z,1.80
2022-10-25T04:45:15.418Z,3.30
2022-10-25T04:48:16.667Z,1.77
2022-10-25T04:51:18.188Z,2.95
2022-10-25T04:54:19.440Z,1.58
2022-10-25T04:57:20.673Z,2.50
2022-10-25T05:00:22.383Z,4.05
2022-10-25T05:03:23.815Z,2.50
2022-10-25T05:06:26.624Z,2.88
2022-10-25T05:09:27.888Z,3.15
2022-10-25T05:12:29.270Z,3.33
2022-10-25T05:15:30.509Z,3.85
2022-10-25T05:18:32.422Z,2.13
2022-10-25T05:21:33.685Z,2.42
2022-10-25T05:24:35.179Z,2.53
2022-10-25T05:27:37.360Z,2.42
2022-10-25T05:30:42.109Z,2.63
2022-10-25T05:33:45.042Z,2.67
2022-10-25T05:36:46.356Z,3.13
2022-10-25T05:39:47.724Z,2.58
2022-10-25T05:42:49.384Z,4.43
2022-10-25T05:45:51.162Z,2.47
2022-10-25T05:48:53.545Z,2.13
2022-10-25T05:51:54.968Z,2.70
2022-10-25T05:54:56.254Z,3.10
2022-10-25T05:57:57.554Z,2.88
2022-10-25T06:00:59.329Z,2.05
2022-10-25T06:04:00.673Z,2.08
2022-10-25T06:07:01.891Z,1.90
2022-10-25T06:10:07.085Z,2.03
2022-10-25T06:13:11.065Z,1.60
2022-10-25T06:16:13.430Z,1.98
2022-10-25T06:19:14.666Z,2.83
2022-10-25T06:22:16.198Z,3.17
2022-10-25T06:25:17.634Z,3.28
2022-10-25T06:28:18.919Z,2.40
2022-10-25T06:31:20.294Z,2.70
2022-10-25T06:34:21.582Z,3.03
2022-10-25T06:37:22.870Z,9.02
2022-10-25T06:40:24.125Z,5.07
2022-10-25T06:43:25.387Z,5.22
2022-10-25T06:46:28.293Z,4.93
2022-10-25T06:49:29.545Z,6.88
2022-10-25T06:52:30.850Z,6.82
2022-10-25T06:55:32.243Z,2.90
2022-10-25T06:58:34.207Z,4.00
2022-10-25T07:01:35.814Z,4.40
2022-10-25T07:04:37.314Z,2.88
2022-10-25T07:07:38.738Z,4.50
2022-10-25T07:10:40.107Z,3.17
2022-10-25T07:13:41.567Z,5.18
2022-10-25T07:16:42.884Z,4.50
2022-10-25T07:19:44.114Z,4.60
2022-10-25T07:22:46.328Z,6.35
2022-10-25T07:25:47.577Z,5.30
2022-10-25T07:28:49.952Z,6.22
2022-10-25T07:31:51.202Z,3.17
2022-10-25T07:34:52.682Z,3.03
2022-10-25T07:37:53.955Z,4.65
2022-10-25T07:40:56.840Z,2.97
2022-10-25T07:43:58.125Z,4.05
2022-10-25T07:46:59.395Z,3.95
2022-10-25T07:50:00.623Z,4.75
2022-10-25T07:53:01.909Z,4.10
2022-10-25T07:56:03.690Z,5.85
2022-10-25T07:59:04.911Z,3.42
2022-10-25T08:02:06.170Z,5.07
2022-10-25T08:05:09.340Z,3.95
2022-10-25T08:08:10.874Z,3.67
2022-10-25T08:11:12.093Z,2.63
2022-10-25T08:14:13.692Z,2.58
2022-10-25T08:17:16.381Z,6.07
2022-10-25T08:20:17.710Z,3.70
2022-10-25T08:23:19.126Z,2.13
2022-10-25T08:26:25.013Z,4.82
2022-10-25T08:29:26.396Z,2.50
2022-10-25T08:32:29.433Z,3.47
2022-10-25T08:35:30.809Z,4.55
2022-10-25T08:38:32.262Z,3.97
2022-10-25T08:41:53.829Z,2.88
2022-10-25T08:45:01.989Z,3.38
2022-10-25T08:48:04.567Z,3.00
2022-10-25T08:51:12.311Z,3.00
2022-10-25T08:54:19.861Z,2.40
2022-10-25T08:57:25.753Z,3.42
2022-10-25T09:00:31.189Z,2.53
2022-10-25T09:03:33.063Z,1.98
2022-10-25T09:06:36.009Z,4.38
2022-10-25T09:09:37.406Z,3.70
2022-10-25T09:12:43.422Z,2.75
2022-10-25T09:15:52.044Z,2.97
2022-10-25T09:18:54.862Z,2.13
2022-10-25T09:21:59.419Z,3.80
2022-10-25T09:25:02.663Z,4.15
2022-10-25T09:28:08.494Z,3.00
2022-10-25T09:31:15.323Z,2.17
2022-10-25T09:34:18.657Z,2.88
2022-10-25T09:37:31.248Z,3.03
2022-10-25T09:40:45.197Z,3.20
2022-10-25T09:44:04.213Z,1.45
2022-10-25T09:47:11.598Z,3.50
2022-10-25T09:50:21.842Z,2.60
2022-10-25T09:53:24.240Z,2.47
2022-10-25T09:56:25.764Z,2.65
2022-10-25T09:59:28.069Z,4.70
2022-10-25T10:02:29.559Z,2.42
2022-10-25T10:05:31.626Z,2.10
2022-10-25T10:08:34.116Z,1.83
2022-10-25T10:11:36.146Z,2.05
2022-10-25T10:14:44.323Z,2.97
2022-10-25T10:17:46.286Z,2.75
2022-10-25T10:21:06.461Z,3.45
2022-10-25T10:24:12.775Z,3.63
2022-10-25T10:27:34.702Z,2.17
2022-10-25T10:30:38.833Z,2.30
2022-10-25T10:33:41.195Z,2.53
2022-10-25T10:36:45.296Z,4.30
2022-10-25T10:39:52.739Z,2.60
2022-10-25T10:42:57.021Z,4.35
2022-10-25T10:46:02.323Z,3.50
2022-10-25T10:49:03.942Z,4.10
2022-10-25T10:52:06.025Z,2.20
2022-10-25T10:55:27.493Z,4.97
2022-10-25T10:58:31.179Z,3.17
2022-10-25T11:01:33.364Z,2.38
2022-10-25T11:04:46.283Z,3.08
2022-10-25T11:07:55.339Z,2.42
2022-10-25T11:11:13.416Z,3.85
2022-10-25T11:14:15.977Z,2.28
2022-10-25T11:17:29.510Z,2.53
2022-10-25T11:20:33.200Z,1.85
2022-10-25T11:23:40.789Z,4.47
2022-10-25T11:26:47.333Z,1.63
2022-10-25T11:29:48.537Z,2.70
2022-10-25T11:33:08.683Z,2.50
2022-10-25T11:36:20.944Z,3.75
2022-10-25T11:39:48.333Z,3.50
2022-10-25T11:43:00.181Z,3.58
2022-10-25T11:46:15.196Z,2.28
2022-10-25T11:49:28.736Z,3.55
2022-10-25T11:52:32.771Z,3.45
2022-10-25T11:55:43.220Z,2.65
2022-10-25T12:01:46.469Z,3.15
2022-10-25T12:04:52.477Z,1.65
2022-10-25T12:08:20.228Z,2.33
2022-10-25T12:11:25.149Z,3.33
2022-10-25T12:14:32.484Z,4.38
2022-10-25T12:17:34.348Z,3.08
2022-10-25T12:20:36.767Z,3.40
2022-10-25T12:23:44.016Z,4.35
2022-10-25T12:26:45.893Z,3.75
2022-10-25T12:29:49.689Z,4.75
2022-10-25T12:35:54.160Z,2.10
2022-10-25T12:38:56.274Z,1.77
2022-10-25T12:42:05.780Z,3.10
2022-10-25T12:45:19.275Z,3.20
2022-10-25T12:48:34.254Z,2.22
2022-10-25T12:51:54.545Z,2.10
2022-10-25T12:55:08.004Z,2.08
2022-10-25T12:58:28.019Z,1.42
2022-10-25T13:01:38.433Z,3.05
2022-10-25T13:04:58.483Z,1.02
2022-10-25T13:08:01.477Z,1.08
2022-10-25T13:11:04.336Z,1.45
2022-10-25T13:14:14.431Z,2.38
2022-10-25T13:17:15.975Z,1.88
2022-10-25T13:20:20.231Z,2.25
2022-10-25T13:23:40.341Z,2.15
2022-10-25T13:27:00.318Z,1.92
2022-10-25T13:33:24.275Z,2.25
2022-10-25T13:36:44.392Z,5.97
2022-10-25T13:39:45.933Z,2.05
2022-10-25T13:42:49.200Z,1.60
2022-10-25T13:45:54.889Z,2.40
2022-10-25T13:48:57.334Z,3.08
2022-10-25T13:51:59.833Z,2.72
2022-10-25T13:55:03.015Z,2.05
2022-10-25T13:58:25.743Z,3.83
2022-10-25T14:01:27.402Z,2.47
2022-10-25T14:04:36.672Z,5.47
2022-10-25T14:07:41.917Z,3.33
2022-10-25T14:10:43.273Z,3.70
2022-10-25T14:13:50.526Z,2.67
2022-10-25T14:16:55.431Z,1.75
2022-10-25T14:20:16.945Z,2.92
2022-10-25T14:23:22.722Z,2.05
2022-10-25T14:26:24.557Z,3.83
2022-10-25T14:29:27.606Z,1.20
2022-10-25T14:32:28.908Z,2.35
2022-10-25T14:35:45.132Z,1.42
2022-10-25T14:38:50.756Z,2.50
2022-10-25T14:41:56.287Z,2.83
2022-10-25T14:44:57.565Z,2.90
2022-10-25T14:47:58.817Z,2.90
2022-10-25T14:51:03.630Z,3.30
2022-10-25T14:54:06.651Z,3.80
2022-10-25T14:57:09.199Z,4.07
2022-10-25T15:00:22.487Z,1.83
2022-10-25T15:03:24.855Z,2.20
2022-10-25T15:06:28.393Z,1.80
2022-10-25T15:09:42.190Z,2.00
2022-10-25T15:12:50.480Z,2.35
2022-10-25T15:15:51.974Z,1.67
2022-10-25T15:19:06.898Z,2.58
2022-10-25T15:22:14.340Z,2.80
2022-10-25T15:25:27.072Z,2.03
2022-10-25T15:28:45.824Z,4.05
2022-10-25T15:31:47.142Z,2.22
2022-10-25T15:34:50.100Z,2.83
2022-10-25T15:37:51.563Z,2.78
2022-10-25T15:40:53.029Z,3.42
2022-10-25T15:43:54.273Z,2.60
2022-10-25T15:46:55.774Z,3.00
2022-10-25T15:49:57.458Z,3.33
2022-10-25T15:52:58.829Z,3.22
2022-10-25T15:56:00.098Z,2.75
2022-10-25T15:59:02.386Z,2.45
2022-10-25T16:02:06.410Z,4.15
2022-10-25T16:05:33.887Z,3.80
2022-10-25T16:11:38.348Z,3.53
2022-10-25T16:14:39.595Z,3.67
2022-10-25T16:17:41.410Z,5.85
2022-10-25T16:20:42.674Z,3.65
2022-10-25T16:23:43.895Z,1.95
2022-10-25T16:26:46.721Z,3.70
2022-10-25T16:29:48.009Z,4.55
2022-10-25T16:32:49.610Z,3.92
2022-10-25T16:35:51.062Z,6.07
2022-10-25T16:38:52.287Z,3.75
2022-10-25T16:41:55.434Z,3.72
2022-10-25T16:44:57.059Z,5.63
2022-10-25T16:47:58.746Z,4.15
2022-10-25T16:51:00.023Z,11.15
2022-10-25T16:54:01.704Z,9.77
2022-10-25T16:57:03.017Z,8.55
2022-10-25T17:00:04.497Z,6.05
2022-10-25T17:03:05.767Z,5.15
2022-10-25T17:06:22.066Z,5.18
2022-10-25T17:09:28.216Z,5.38
2022-10-25T17:12:29.460Z,13.73
2022-10-25T17:15:31.040Z,7.18
2022-10-25T17:18:32.855Z,8.10
2022-10-25T17:21:35.715Z,8.88
2022-10-25T17:24:37.605Z,6.38
2022-10-25T17:27:41.688Z,8.50
2022-10-25T17:30:43.127Z,8.07
2022-10-25T17:33:44.390Z,6.97
2022-10-25T17:36:45.705Z,6.05
2022-10-25T17:39:46.953Z,8.60
2022-10-25T17:42:48.205Z,5.93
2022-10-25T17:45:49.430Z,9.18
2022-10-25T17:48:53.358Z,8.23
2022-10-25T17:51:54.578Z,7.55
2022-10-25T17:54:55.837Z,6.63
2022-10-25T17:57:57.083Z,3.70
2022-10-25T18:01:03.066Z,3.97
2022-10-25T18:04:04.487Z,5.50
2022-10-25T18:07:05.739Z,5.55
2022-10-25T18:10:07.102Z,9.07
2022-10-25T18:13:08.352Z,5.80
2022-10-25T18:16:10.265Z,7.13
2022-10-25T18:19:13.371Z,6.15
2022-10-25T18:22:14.691Z,8.13
2022-10-25T18:25:16.034Z,4.53
2022-10-25T18:28:17.318Z,5.82
2022-10-25T18:31:20.074Z,6.30
2022-10-25T18:34:21.359Z,5.65
2022-10-25T18:37:22.638Z,4.70
2022-10-25T18:40:24.275Z,4.30
2022-10-25T18:43:25.586Z,5.25
2022-10-25T18:46:30.594Z,7.90
2022-10-25T18:49:32.066Z,5.15
2022-10-25T18:52:33.323Z,8.18
2022-10-25T18:55:34.550Z,6.03
2022-10-25T18:58:35.857Z,7.03
2022-10-25T19:01:37.924Z,9.25
2022-10-25T19:04:39.238Z,12.85
2022-10-25T19:07:40.523Z,6.03
2022-10-25T19:10:42.247Z,10.43
2022-10-25T19:13:47.485Z,9.35
2022-10-25T19:16:51.801Z,18.27
2022-10-25T19:19:53.128Z,23.42
2022-10-25T19:22:58.480Z,32.45
2022-10-25T19:26:03.977Z,27.75
2022-10-25T19:29:05.256Z,14.48
2022-10-25T19:32:06.578Z,13.30
2022-10-25T19:35:08.056Z,10.05
2022-10-25T19:38:09.314Z,11.82
2022-10-25T19:41:12.587Z,8.63
2022-10-25T19:44:13.859Z,11.60
2022-10-25T19:47:15.119Z,14.05
2022-10-25T19:50:16.478Z,17.60
2022-10-25T19:53:19.211Z,14.50
2022-10-25T19:56:21.856Z,13.93
2022-10-25T19:59:23.131Z,12.10
2022-10-25T20:02:24.637Z,12.90
2022-10-25T20:05:26.149Z,12.48
2022-10-25T20:08:27.459Z,9.88
2022-10-25T20:11:28.783Z,13.50
2022-10-25T20:14:33.224Z,8.93
2022-10-25T20:17:34.503Z,11.35
2022-10-25T20:20:36.173Z,11.48
2022-10-25T20:23:37.943Z,7.55
2022-10-25T20:26:40.813Z,6.82
2022-10-25T20:29:42.060Z,10.27
2022-10-25T20:32:43.394Z,8.02
2022-10-25T20:35:45.823Z,5.32
2022-10-25T20:38:47.323Z,8.18
2022-10-25T20:41:48.609Z,7.50
2022-10-25T20:44:49.904Z,9.63
2022-10-25T20:47:53.319Z,5.88
2022-10-25T20:50:54.617Z,7.15
2022-10-25T20:53:56.810Z,12.38
2022-10-25T20:56:58.090Z,11.23
2022-10-25T20:59:59.321Z,11.13
2022-10-25T21:03:00.557Z,8.48
2022-10-25T21:06:05.931Z,7.30
2022-10-25T21:09:07.162Z,6.65
2022-10-25T21:12:08.433Z,8.77
2022-10-25T21:15:12.029Z,6.00
2022-10-25T21:18:14.467Z,6.50
2022-10-25T21:21:17.941Z,5.78
2022-10-25T21:24:19.336Z,5.28
2022-10-25T21:27:20.589Z,6.15
2022-10-25T21:30:22.536Z,7.50
2022-10-25T21:33:23.762Z,7.30
2022-10-25T21:36:25.307Z,6.00
2022-10-25T21:39:26.579Z,7.15
2022-10-25T21:42:30.415Z,7.57
2022-10-25T21:45:31.678Z,6.40
2022-10-25T21:48:33.823Z,7.88
2022-10-25T21:51:35.072Z,4.78
2022-10-25T21:54:36.321Z,6.63
2022-10-25T21:57:37.580Z,6.00
2022-10-25T22:00:41.366Z,7.35
2022-10-25T22:03:42.612Z,5.38
2022-10-25T22:06:43.893Z,6.30
2022-10-25T22:09:45.555Z,6.78
2022-10-25T22:12:47.061Z,6.28
2022-10-25T22:15:59.011Z,6.32
2022-10-25T22:19:04.982Z,5.68
2022-10-25T22:22:06.203Z,5.35
2022-10-25T22:25:07.619Z,4.65
2022-10-25T22:28:08.825Z,6.45
2022-10-25T22:31:11.826Z,5.72
2022-10-25T22:34:13.060Z,6.68
2022-10-25T22:37:14.302Z,5.45
2022-10-25T22:40:15.526Z,5.85
2022-10-25T22:43:16.755Z,6.75
2022-10-25T22:46:22.072Z,4.10
2022-10-25T22:49:23.306Z,6.80
2022-10-25T22:52:24.586Z,5.22
2022-10-25T22:55:25.793Z,5.13
2022-10-25T22:58:28.134Z,4.88
2022-10-25T23:01:30.445Z,5.40
2022-10-25T23:04:31.761Z,5.78
2022-10-25T23:07:33.088Z,4.63
2022-10-25T23:10:34.325Z,6.32
2022-10-25T23:13:35.873Z,4.90
2022-10-25T23:16:37.110Z,5.15
2022-10-25T23:19:38.331Z,5.65
2022-10-25T23:22:39.594Z,7.82
2022-10-25T23:25:40.826Z,4.85
2022-10-25T23:28:42.124Z,4.90
2022-10-25T23:31:43.334Z,6.55
2022-10-25T23:34:45.661Z,5.30
2022-10-25T23:37:47.069Z,6.00
2022-10-25T23:40:49.505Z,5.15
2022-10-25T23:43:50.812Z,5.18
2022-10-25T23:46:52.098Z,4.38
2022-10-25T23:49:53.357Z,4.95
2022-10-25T23:52:54.643Z,5.28
2022-10-25T23:55:56.217Z,4.18
2022-10-25T23:58:57.438Z,4.72
